Time;durP1;ratioP1;P1;durP2;ratioP2;P2;SDS_P1;SDS_P2;PMS_P1;PMS_P2;Temp;Humidity;BMP_temperature;BMP_pressure;BME280_temperature;BME280_humidity;BME280_pressure;Samples;Min_cycle;Max_cycle;Signal;HPM_P1;HPM_P2
2023/09/30 00:00:00;;;;;;;4.03;0.90;;;;;;;;;;4979971;28;20042;-65
2023/09/30 00:02:27;;;;;;;4.75;0.90;;;;;;;;;;4978988;28;20171;-66
2023/09/30 00:04:54;;;;;;;3.90;0.95;;;;;;;;;;4980413;28;20095;-66
2023/09/30 00:07:21;;;;;;;3.35;0.95;;;;;;;;;;4979382;28;20050;-66
2023/09/30 00:09:47;;;;;;;3.13;0.90;;;;;;;;;;4979001;28;20042;-67
2023/09/30 00:12:17;;;;;;;4.97;0.90;;;;;;;;;;4978650;28;20046;-65
2023/09/30 00:14:44;;;;;;;3.08;0.90;;;;;;;;;;4978537;28;20120;-66
2023/09/30 00:17:11;;;;;;;4.40;0.80;;;;;;;;;;4995288;28;20394;-65
2023/09/30 00:19:37;;;;;;;1.58;0.52;;;;;;;;;;4981320;28;20046;-67
2023/09/30 00:22:04;;;;;;;2.42;0.85;;;;;;;;;;4978885;28;20038;-65
2023/09/30 00:24:34;;;;;;;4.20;0.80;;;;;;;;;;4978263;28;20042;-67
2023/09/30 00:27:00;;;;;;;2.10;0.70;;;;;;;;;;4977306;28;20046;-65
2023/09/30 00:29:27;;;;;;;4.15;0.98;;;;;;;;;;4978929;28;20053;-66
2023/09/30 00:31:54;;;;;;;2.92;0.90;;;;;;;;;;4979139;28;20077;-65
2023/09/30 00:34:20;;;;;;;5.20;1.00;;;;;;;;;;4976823;28;20042;-67
2023/09/30 00:36:49;;;;;;;4.43;0.90;;;;;;;;;;4977841;28;20049;-65
2023/09/30 00:39:15;;;;;;;4.93;0.60;;;;;;;;;;4978713;28;20068;-65
2023/09/30 00:41:42;;;;;;;12.65;1.10;;;;;;;;;;4977636;28;20153;-66
2023/09/30 00:44:09;;;;;;;4.88;1.25;;;;;;;;;;5008400;28;20125;-65
2023/09/30 00:46:41;;;;;;;4.20;0.98;;;;;;;;;;4978338;28;20046;-66
2023/09/30 00:49:08;;;;;;;4.25;1.02;;;;;;;;;;4977534;28;20034;-66
2023/09/30 00:51:34;;;;;;;2.05;0.70;;;;;;;;;;4976530;28;20184;-64
2023/09/30 00:54:01;;;;;;;2.85;0.80;;;;;;;;;;4978235;28;20084;-66
2023/09/30 00:56:29;;;;;;;5.50;0.93;;;;;;;;;;4976968;28;20069;-67
2023/09/30 00:58:56;;;;;;;2.55;0.88;;;;;;;;;;4978461;28;20505;-66
2023/09/30 01:01:23;;;;;;;7.28;1.30;;;;;;;;;;4978221;28;20057;-64
2023/09/30 01:03:50;;;;;;;3.53;0.60;;;;;;;;;;4976890;28;20034;-65
2023/09/30 01:06:16;;;;;;;4.90;0.90;;;;;;;;;;5009647;28;20056;-64
2023/09/30 01:08:43;;;;;;;3.20;0.80;;;;;;;;;;4979044;28;20644;-65
2023/09/30 01:11:11;;;;;;;4.75;0.70;;;;;;;;;;4981663;28;20030;-65
2023/09/30 01:13:38;;;;;;;2.58;0.80;;;;;;;;;;4978766;28;20219;-65
2023/09/30 01:16:12;;;;;;;3.13;0.80;;;;;;;;;;4979041;28;20055;-65
2023/09/30 01:18:38;;;;;;;;;;;;;;;;;;4996400;28;20061;-65
2023/09/30 01:21:06;;;;;;;4.32;1.10;;;;;;;;;;4983589;28;20339;-66
2023/09/30 01:23:33;;;;;;;3.70;0.82;;;;;;;;;;4976128;28;20407;-65
2023/09/30 01:26:10;;;;;;;1.70;0.50;;;;;;;;;;4977673;28;20049;-67
2023/09/30 01:28:37;;;;;;;7.78;0.88;;;;;;;;;;4991903;28;20050;-66
2023/09/30 01:31:04;;;;;;;1.90;0.60;;;;;;;;;;4977555;28;20042;-66
2023/09/30 01:33:31;;;;;;;2.63;0.70;;;;;;;;;;4976475;28;20624;-65
2023/09/30 01:35:58;;;;;;;2.10;0.70;;;;;;;;;;4977882;28;20169;-65
2023/09/30 01:38:24;;;;;;;4.57;0.70;;;;;;;;;;4977135;28;20041;-66
2023/09/30 01:40:51;;;;;;;2.50;0.70;;;;;;;;;;4977952;28;20081;-65
2023/09/30 01:43:18;;;;;;;1.80;0.60;;;;;;;;;;4977672;28;20060;-65
2023/09/30 01:45:44;;;;;;;4.82;0.80;;;;;;;;;;4982455;28;20038;-67
2023/09/30 01:48:11;;;;;;;2.75;0.70;;;;;;;;;;4978349;28;20042;-65
2023/09/30 01:50:38;;;;;;;3.78;0.65;;;;;;;;;;4973120;28;20038;-66
2023/09/30 01:53:12;;;;;;;2.05;0.70;;;;;;;;;;4978161;28;20582;-67
2023/09/30 01:55:38;;;;;;;;;;;;;;;;;;4979153;28;20051;-67
2023/09/30 01:58:05;;;;;;;2.95;0.98;;;;;;;;;;4994709;28;19960;-65
2023/09/30 02:00:31;;;;;;;2.60;0.77;;;;;;;;;;5009957;28;20107;-65
2023/09/30 02:02:58;;;;;;;4.18;0.90;;;;;;;;;;4982424;28;20112;-67
2023/09/30 02:05:25;;;;;;;7.93;0.90;;;;;;;;;;4980172;28;20090;-66
2023/09/30 02:07:52;;;;;;;3.33;0.80;;;;;;;;;;4981436;28;20121;-66
2023/09/30 02:10:18;;;;;;;2.60;0.70;;;;;;;;;;4980463;28;20087;-67
2023/09/30 02:13:06;;;;;;;3.13;0.80;;;;;;;;;;5036653;28;21004;-67
2023/09/30 02:15:33;;;;;;;1.70;0.50;;;;;;;;;;5037366;28;20056;-67
2023/09/30 02:18:00;;;;;;;5.00;0.70;;;;;;;;;;5037901;28;20072;-67
2023/09/30 02:20:30;;;;;;;2.63;0.80;;;;;;;;;;5036954;28;20049;-67
2023/09/30 02:22:58;;;;;;;5.93;0.88;;;;;;;;;;5037147;28;20642;-65
2023/09/30 02:25:25;;;;;;;4.18;0.90;;;;;;;;;;5036974;28;20115;-65
2023/09/30 02:27:52;;;;;;;3.20;0.80;;;;;;;;;;5036722;28;20143;-65
2023/09/30 02:30:19;;;;;;;7.05;1.40;;;;;;;;;;5036563;28;20044;-65
2023/09/30 02:32:46;;;;;;;5.15;2.08;;;;;;;;;;5034478;28;20037;-64
2023/09/30 02:35:15;;;;;;;4.03;1.42;;;;;;;;;;5036890;28;20576;-66
2023/09/30 02:37:41;;;;;;;8.30;1.70;;;;;;;;;;5037242;28;20036;-65
2023/09/30 02:40:14;;;;;;;8.02;1.02;;;;;;;;;;5038285;28;20044;-65
2023/09/30 02:42:41;;;;;;;2.67;0.90;;;;;;;;;;5053597;28;20155;-66
2023/09/30 02:45:09;;;;;;;2.50;0.85;;;;;;;;;;5035839;28;20154;-67
2023/09/30 02:47:36;;;;;;;2.17;0.70;;;;;;;;;;5037239;28;20390;-66
2023/09/30 02:50:04;;;;;;;4.03;0.63;;;;;;;;;;5026813;28;20675;-66
2023/09/30 02:52:31;;;;;;;2.47;0.60;;;;;;;;;;4981617;28;20077;-66
2023/09/30 02:54:59;;;;;;;3.03;0.50;;;;;;;;;;4981494;28;21991;-65
2023/09/30 02:57:27;;;;;;;2.40;0.60;;;;;;;;;;4987105;28;20657;-66
2023/09/30 02:59:56;;;;;;;2.80;0.60;;;;;;;;;;4980186;28;20060;-65
2023/09/30 03:02:23;;;;;;;9.57;1.05;;;;;;;;;;4979985;28;20747;-66
2023/09/30 03:04:50;;;;;;;4.90;0.68;;;;;;;;;;4980241;28;20145;-65
2023/09/30 03:07:19;;;;;;;10.50;1.00;;;;;;;;;;4979227;28;20034;-65
2023/09/30 03:09:46;;;;;;;4.60;0.85;;;;;;;;;;4977306;28;20125;-65
2023/09/30 03:12:13;;;;;;;2.97;0.80;;;;;;;;;;4978856;28;20038;-65
2023/09/30 03:14:40;;;;;;;5.90;1.20;;;;;;;;;;4979952;28;20322;-65
2023/09/30 03:17:11;;;;;;;2.83;0.90;;;;;;;;;;4981397;28;20043;-65
2023/09/30 03:19:38;;;;;;;3.10;0.82;;;;;;;;;;4977905;28;20088;-66
2023/09/30 03:22:10;;;;;;;6.15;1.00;;;;;;;;;;4980959;28;20045;-66
2023/09/30 03:24:38;;;;;;;6.88;0.98;;;;;;;;;;4981502;28;20088;-65
2023/09/30 03:27:04;;;;;;;3.33;1.10;;;;;;;;;;4981173;28;20041;-65
2023/09/30 03:29:31;;;;;;;5.93;1.30;;;;;;;;;;4980442;28;20519;-66
2023/09/30 03:31:58;;;;;;;4.05;1.10;;;;;;;;;;4980612;28;20042;-66
2023/09/30 03:34:24;;;;;;;5.80;1.17;;;;;;;;;;4980691;28;20042;-65
2023/09/30 03:36:51;;;;;;;8.10;1.40;;;;;;;;;;4980794;28;20042;-65
2023/09/30 03:39:26;;;;;;;4.15;1.30;;;;;;;;;;4978017;28;20146;-65
2023/09/30 03:41:54;;;;;;;3.55;1.10;;;;;;;;;;4981493;28;20073;-67
2023/09/30 03:44:20;;;;;;;4.15;1.17;;;;;;;;;;4994629;28;20080;-67
2023/09/30 03:46:47;;;;;;;3.25;1.30;;;;;;;;;;4979344;28;20518;-66
2023/09/30 03:49:13;;;;;;;3.28;1.20;;;;;;;;;;4980034;28;20045;-65
2023/09/30 03:51:40;;;;;;;7.05;1.70;;;;;;;;;;4978050;28;20073;-68
2023/09/30 03:54:08;;;;;;;4.72;1.95;;;;;;;;;;4978741;28;20046;-67
2023/09/30 03:56:35;;;;;;;6.80;2.13;;;;;;;;;;4978226;28;20042;-66
2023/09/30 03:59:02;;;;;;;5.72;2.33;;;;;;;;;;4979529;28;20615;-66
2023/09/30 04:01:29;;;;;;;5.70;2.50;;;;;;;;;;4977343;28;20096;-66
2023/09/30 04:03:56;;;;;;;7.45;2.95;;;;;;;;;;4978949;28;20423;-67
2023/09/30 04:06:22;;;;;;;4.78;2.47;;;;;;;;;;4978069;28;20038;-68
2023/09/30 04:08:50;;;;;;;6.05;2.95;;;;;;;;;;4980527;28;20042;-68
2023/09/30 04:11:18;;;;;;;8.90;3.38;;;;;;;;;;4977958;28;20081;-65
2023/09/30 04:13:45;;;;;;;7.28;3.65;;;;;;;;;;4978307;28;20046;-67
2023/09/30 04:16:11;;;;;;;6.93;3.35;;;;;;;;;;4977801;28;20061;-68
2023/09/30 04:18:41;;;;;;;8.98;3.65;;;;;;;;;;4977829;28;20038;-67
2023/09/30 04:21:07;;;;;;;7.28;3.40;;;;;;;;;;4979196;28;20521;-66
2023/09/30 04:23:36;;;;;;;12.05;3.63;;;;;;;;;;4978144;28;20085;-64
2023/09/30 04:26:04;;;;;;;8.82;3.47;;;;;;;;;;4977896;28;20081;-64
2023/09/30 04:28:30;;;;;;;10.15;3.58;;;;;;;;;;4977924;28;20046;-65
2023/09/30 04:30:58;;;;;;;7.32;3.30;;;;;;;;;;4978788;28;20152;-65
2023/09/30 04:33:25;;;;;;;8.45;3.85;;;;;;;;;;4978191;28;20042;-64
2023/09/30 04:35:51;;;;;;;9.82;4.00;;;;;;;;;;4977980;28;20050;-65
2023/09/30 04:38:18;;;;;;;6.72;3.75;;;;;;;;;;4977956;28;20034;-65
2023/09/30 04:40:48;;;;;;;9.00;4.30;;;;;;;;;;4977997;28;20066;-64
2023/09/30 04:43:14;;;;;;;9.82;4.82;;;;;;;;;;4975806;28;20489;-65
2023/09/30 04:45:41;;;;;;;12.00;4.90;;;;;;;;;;4977569;28;20042;-65
2023/09/30 04:48:07;;;;;;;7.95;4.28;;;;;;;;;;4978778;28;20088;-66
2023/09/30 04:50:34;;;;;;;8.75;4.75;;;;;;;;;;4978217;28;20133;-65
2023/09/30 04:53:02;;;;;;;10.90;5.00;;;;;;;;;;4977581;28;20645;-66
2023/09/30 04:55:28;;;;;;;9.88;5.15;;;;;;;;;;4976528;28;20049;-67
2023/09/30 04:57:55;;;;;;;11.07;6.03;;;;;;;;;;4978791;28;20165;-67
2023/09/30 05:00:25;;;;;;;12.60;5.72;;;;;;;;;;4978145;28;20038;-66
2023/09/30 05:02:52;;;;;;;10.73;6.40;;;;;;;;;;4985244;28;20050;-67
2023/09/30 05:05:19;;;;;;;9.85;5.70;;;;;;;;;;4980714;28;20041;-67
2023/09/30 05:07:47;;;;;;;13.80;6.95;;;;;;;;;;4976184;28;20048;-65
2023/09/30 05:10:16;;;;;;;12.27;6.10;;;;;;;;;;4978459;28;20212;-65
2023/09/30 05:12:46;;;;;;;13.25;6.38;;;;;;;;;;4977359;28;20046;-67
2023/09/30 05:15:16;;;;;;;12.00;6.65;;;;;;;;;;4978808;28;20058;-69
2023/09/30 05:17:45;;;;;;;12.43;6.85;;;;;;;;;;4976797;28;20070;-66
2023/09/30 05:20:12;;;;;;;12.52;7.03;;;;;;;;;;5008356;28;20082;-64
2023/09/30 05:22:45;;;;;;;13.65;6.90;;;;;;;;;;4975043;28;20045;-65
2023/09/30 05:25:12;;;;;;;11.88;7.40;;;;;;;;;;4978137;28;20054;-67
2023/09/30 05:27:38;;;;;;;13.27;6.72;;;;;;;;;;4977635;28;20504;-69
2023/09/30 05:30:06;;;;;;;16.05;7.78;;;;;;;;;;4977816;28;20065;-67
2023/09/30 05:32:33;;;;;;;13.65;7.63;;;;;;;;;;4975522;28;20128;-67
2023/09/30 05:35:03;;;;;;;12.18;7.32;;;;;;;;;;4978810;28;20054;-65
2023/09/30 05:37:29;;;;;;;12.63;7.47;;;;;;;;;;4984284;28;20037;-65
2023/09/30 05:39:56;;;;;;;16.52;8.40;;;;;;;;;;4983640;28;20046;-66
2023/09/30 05:42:22;;;;;;;12.00;7.15;;;;;;;;;;4983095;28;20124;-66
2023/09/30 05:44:49;;;;;;;15.00;8.20;;;;;;;;;;4984648;28;21313;-66
2023/09/30 05:47:16;;;;;;;13.80;6.75;;;;;;;;;;4982123;28;20038;-66
2023/09/30 05:49:43;;;;;;;13.52;7.63;;;;;;;;;;4983379;28;20098;-66
2023/09/30 05:52:09;;;;;;;15.93;8.18;;;;;;;;;;4983665;28;20583;-66
2023/09/30 05:54:37;;;;;;;12.43;8.02;;;;;;;;;;4983584;28;20145;-67
2023/09/30 05:57:03;;;;;;;13.32;8.18;;;;;;;;;;4985165;28;20093;-67
2023/09/30 05:59:30;;;;;;;14.60;8.02;;;;;;;;;;4983564;28;20049;-64
2023/09/30 06:01:57;;;;;;;14.15;8.00;;;;;;;;;;5016724;28;20050;-65
2023/09/30 06:04:23;;;;;;;11.23;6.72;;;;;;;;;;4985541;28;20743;-66
2023/09/30 06:06:50;;;;;;;11.20;7.30;;;;;;;;;;4983525;28;20038;-66
2023/09/30 06:09:17;;;;;;;14.00;8.57;;;;;;;;;;4985877;28;20046;-65
2023/09/30 06:11:43;;;;;;;17.75;8.48;;;;;;;;;;4984893;28;20036;-64
2023/09/30 06:14:14;;;;;;;15.05;8.43;;;;;;;;;;4985036;28;20034;-65
2023/09/30 06:16:41;;;;;;;14.88;8.13;;;;;;;;;;4983485;28;20058;-65
2023/09/30 06:19:09;;;;;;;17.50;9.00;;;;;;;;;;4988852;28;20049;-65
2023/09/30 06:21:35;;;;;;;14.10;8.82;;;;;;;;;;4988308;28;20149;-64
2023/09/30 06:24:02;;;;;;;14.32;9.10;;;;;;;;;;4999639;28;20050;-65
2023/09/30 06:26:29;;;;;;;17.58;10.02;;;;;;;;;;5004460;28;20059;-65
2023/09/30 06:28:56;;;;;;;16.33;9.82;;;;;;;;;;4983353;28;20060;-63
2023/09/30 06:31:24;;;;;;;15.88;9.02;;;;;;;;;;4986890;28;20184;-66
2023/09/30 06:33:51;;;;;;;22.90;10.85;;;;;;;;;;5014672;28;20120;-63
2023/09/30 06:36:18;;;;;;;19.48;10.68;;;;;;;;;;4982206;28;20053;-64
2023/09/30 06:38:48;;;;;;;24.73;12.65;;;;;;;;;;4981876;28;20057;-64
2023/09/30 06:41:18;;;;;;;26.08;13.57;;;;;;;;;;4982505;28;20049;-64
2023/09/30 06:43:45;;;;;;;20.30;11.73;;;;;;;;;;4983178;28;20415;-63
2023/09/30 06:46:12;;;;;;;26.08;14.60;;;;;;;;;;4981934;28;20044;-63
2023/09/30 06:48:42;;;;;;;29.25;16.63;;;;;;;;;;4978241;28;20042;-64
2023/09/30 06:51:14;;;;;;;31.15;16.80;;;;;;;;;;4994945;28;20042;-63
2023/09/30 06:53:41;;;;;;;30.45;16.35;;;;;;;;;;4979377;28;20172;-62
2023/09/30 06:56:08;;;;;;;37.65;18.27;;;;;;;;;;4978993;28;20473;-64
2023/09/30 06:58:35;;;;;;;34.65;16.65;;;;;;;;;;4981154;28;20049;-64
2023/09/30 07:01:01;;;;;;;31.08;17.60;;;;;;;;;;4980492;28;20129;-63
2023/09/30 07:03:28;;;;;;;34.35;18.05;;;;;;;;;;4979223;28;20038;-63
2023/09/30 07:05:56;;;;;;;37.15;18.30;;;;;;;;;;4981287;28;20053;-65
2023/09/30 07:08:22;;;;;;;36.95;18.77;;;;;;;;;;4971376;28;20045;-66
2023/09/30 07:10:49;;;;;;;32.88;18.00;;;;;;;;;;4980248;28;20129;-65
2023/09/30 07:13:17;;;;;;;27.45;15.80;;;;;;;;;;4996288;28;20078;-64
2023/09/30 07:15:45;;;;;;;27.85;15.55;;;;;;;;;;4980065;28;20054;-65
2023/09/30 07:18:12;;;;;;;31.05;15.60;;;;;;;;;;4980693;28;20130;-64
2023/09/30 07:20:38;;;;;;;29.80;16.50;;;;;;;;;;4983917;28;20047;-64
2023/09/30 07:23:05;;;;;;;36.05;16.35;;;;;;;;;;4990841;28;20046;-64
2023/09/30 07:25:32;;;;;;;31.80;17.20;;;;;;;;;;4979906;28;20164;-63
2023/09/30 07:28:00;;;;;;;35.83;17.88;;;;;;;;;;4980361;28;20042;-64
2023/09/30 07:30:27;;;;;;;32.25;16.25;;;;;;;;;;4979554;28;20061;-65
2023/09/30 07:32:54;;;;;;;36.17;18.55;;;;;;;;;;4981077;28;20490;-65
2023/09/30 07:35:20;;;;;;;35.85;18.15;;;;;;;;;;4980383;28;20057;-66
2023/09/30 07:37:51;;;;;;;38.03;17.80;;;;;;;;;;4979738;28;20054;-63
2023/09/30 07:40:18;;;;;;;41.78;18.90;;;;;;;;;;4979688;28;20050;-66
2023/09/30 07:42:44;;;;;;;35.05;18.70;;;;;;;;;;4979185;28;20038;-64
2023/09/30 07:45:16;;;;;;;35.28;17.70;;;;;;;;;;4978549;28;21441;-65
2023/09/30 07:47:46;;;;;;;33.75;15.98;;;;;;;;;;4990782;28;20562;-65
2023/09/30 07:50:13;;;;;;;32.45;15.85;;;;;;;;;;4986837;28;20518;-65
2023/09/30 07:52:41;;;;;;;29.17;16.33;;;;;;;;;;4978482;28;20046;-64
2023/09/30 07:55:08;;;;;;;30.10;16.05;;;;;;;;;;4979938;28;20112;-64
2023/09/30 07:57:34;;;;;;;32.22;18.10;;;;;;;;;;4992903;28;20030;-65
2023/09/30 08:00:02;;;;;;;29.08;15.25;;;;;;;;;;4980283;28;20092;-64
2023/09/30 08:02:33;;;;;;;25.80;13.38;;;;;;;;;;4978922;28;20469;-64
2023/09/30 08:05:00;;;;;;;25.85;12.70;;;;;;;;;;4977904;28;20037;-64
2023/09/30 08:07:27;;;;;;;24.15;11.70;;;;;;;;;;4979871;28;20568;-65
2023/09/30 08:09:54;;;;;;;19.52;10.52;;;;;;;;;;4977938;28;20487;-65
2023/09/30 08:12:21;;;;;;;18.20;9.57;;;;;;;;;;4979319;28;20042;-64
2023/09/30 08:14:48;;;;;;;19.08;10.25;;;;;;;;;;4978772;28;20054;-65
2023/09/30 08:17:15;;;;;;;17.10;10.10;;;;;;;;;;4979259;28;20511;-65
2023/09/30 08:19:42;;;;;;;23.38;11.80;;;;;;;;;;4980772;28;20034;-64
2023/09/30 08:22:09;;;;;;;26.55;13.35;;;;;;;;;;4979317;28;20439;-63
2023/09/30 08:24:36;;;;;;;32.80;15.10;;;;;;;;;;4978274;28;20105;-65
2023/09/30 08:27:02;;;;;;;35.10;15.88;;;;;;;;;;4978527;28;20392;-65
2023/09/30 08:29:29;;;;;;;38.75;16.88;;;;;;;;;;4978356;28;20065;-64
2023/09/30 08:31:56;;;;;;;36.95;16.15;;;;;;;;;;4978405;28;20038;-65
2023/09/30 08:34:24;;;;;;;41.45;16.77;;;;;;;;;;4980174;28;20100;-66
2023/09/30 08:36:50;;;;;;;37.28;16.98;;;;;;;;;;4979428;28;20518;-66
2023/09/30 08:39:17;;;;;;;33.35;15.35;;;;;;;;;;4975599;28;20042;-64
2023/09/30 08:41:45;;;;;;;34.33;15.07;;;;;;;;;;4980527;28;20038;-64
2023/09/30 08:44:12;;;;;;;30.70;14.25;;;;;;;;;;4980873;28;20049;-66
2023/09/30 08:46:40;;;;;;;27.80;13.60;;;;;;;;;;4980435;28;20589;-64
2023/09/30 08:49:06;;;;;;;28.33;13.40;;;;;;;;;;4981840;28;20042;-66
2023/09/30 08:51:33;;;;;;;22.73;12.05;;;;;;;;;;4980073;28;20118;-65
2023/09/30 08:54:03;;;;;;;26.08;13.40;;;;;;;;;;4978383;28;20382;-69
2023/09/30 08:56:34;;;;;;;24.50;13.50;;;;;;;;;;4996517;28;20181;-65
2023/09/30 08:59:02;;;;;;;29.88;14.60;;;;;;;;;;4982421;28;20041;-65
2023/09/30 09:01:29;;;;;;;27.00;13.65;;;;;;;;;;4980085;28;20045;-65
2023/09/30 09:03:58;;;;;;;33.33;14.68;;;;;;;;;;4997311;28;20077;-65
2023/09/30 09:06:25;;;;;;;26.83;13.60;;;;;;;;;;4978894;28;20184;-65
2023/09/30 09:08:52;;;;;;;28.92;14.93;;;;;;;;;;4978346;28;20472;-65
2023/09/30 09:11:19;;;;;;;28.52;13.77;;;;;;;;;;4993549;28;20061;-67
2023/09/30 09:14:00;;;;;;;30.08;13.90;;;;;;;;;;4978858;28;20830;-64
2023/09/30 09:16:28;;;;;;;30.55;14.82;;;;;;;;;;4977021;28;20077;-65
2023/09/30 09:18:54;;;;;;;30.98;14.77;;;;;;;;;;4995381;28;20121;-66
2023/09/30 09:21:27;;;;;;;29.67;14.45;;;;;;;;;;4979040;28;20163;-64
2023/09/30 09:23:54;;;;;;;28.87;14.27;;;;;;;;;;4996859;28;20387;-65
2023/09/30 09:26:28;;;;;;;28.70;15.35;;;;;;;;;;4986937;28;20034;-66
2023/09/30 09:29:06;;;;;;;32.08;15.95;;;;;;;;;;4993323;28;20057;-65
2023/09/30 09:31:37;;;;;;;32.78;16.10;;;;;;;;;;4982204;28;20065;-64
2023/09/30 09:34:06;;;;;;;30.13;15.07;;;;;;;;;;4993408;28;20497;-63
2023/09/30 09:36:51;;;;;;;37.42;16.27;;;;;;;;;;4979221;28;20049;-64
2023/09/30 09:39:33;;;;;;;34.25;15.38;;;;;;;;;;4994787;28;20550;-68
2023/09/30 09:42:01;;;;;;;32.90;15.13;;;;;;;;;;4976359;28;20042;-65
2023/09/30 09:44:28;;;;;;;33.20;16.65;;;;;;;;;;4979198;28;20109;-67
2023/09/30 09:46:55;;;;;;;32.83;17.13;;;;;;;;;;4978832;28;20050;-65
2023/09/30 09:49:23;;;;;;;36.28;16.92;;;;;;;;;;4967852;28;20058;-73
2023/09/30 09:51:51;;;;;;;34.95;17.40;;;;;;;;;;4979674;28;20062;-66
2023/09/30 09:54:18;;;;;;;34.13;18.77;;;;;;;;;;4981698;28;20324;-66
2023/09/30 09:56:45;;;;;;;39.80;19.67;;;;;;;;;;4975969;28;20062;-66
2023/09/30 09:59:13;;;;;;;36.17;17.58;;;;;;;;;;4985763;28;20064;-66
2023/09/30 10:01:45;;;;;;;37.45;18.10;;;;;;;;;;4991484;28;20085;-66
2023/09/30 10:04:15;;;;;;;40.28;18.60;;;;;;;;;;4976705;28;20045;-67
2023/09/30 10:06:42;;;;;;;36.13;18.25;;;;;;;;;;4976136;28;20046;-65
2023/09/30 10:09:11;;;;;;;36.53;18.02;;;;;;;;;;4978059;28;20042;-64
2023/09/30 10:11:40;;;;;;;38.28;18.50;;;;;;;;;;4975965;28;20192;-68
2023/09/30 10:14:12;;;;;;;37.97;19.25;;;;;;;;;;4959636;28;20038;-65
2023/09/30 10:16:40;;;;;;;43.30;19.52;;;;;;;;;;4976741;28;20056;-65
2023/09/30 10:19:12;;;;;;;35.20;16.02;;;;;;;;;;4976435;28;20126;-63
2023/09/30 10:21:40;;;;;;;36.50;18.40;;;;;;;;;;4985560;28;20689;-66
2023/09/30 10:24:25;;;;;;;39.65;19.23;;;;;;;;;;4979772;28;20116;-65
2023/09/30 10:27:10;;;;;;;40.53;19.85;;;;;;;;;;4978739;28;20042;-64
2023/09/30 10:29:44;;;;;;;39.65;19.33;;;;;;;;;;4981500;28;20106;-64
2023/09/30 10:32:11;;;;;;;36.10;19.33;;;;;;;;;;4981021;28;20069;-63
2023/09/30 10:34:38;;;;;;;35.15;18.35;;;;;;;;;;4981547;28;20213;-63
2023/09/30 10:37:24;;;;;;;41.88;20.67;;;;;;;;;;4977207;28;20042;-64
2023/09/30 10:40:03;;;;;;;34.55;17.17;;;;;;;;;;4987088;28;20187;-64
2023/09/30 10:42:52;;;;;;;34.83;18.15;;;;;;;;;;4981776;28;20576;-66
2023/09/30 10:45:38;;;;;;;40.35;20.10;;;;;;;;;;4981463;28;20676;-66
2023/09/30 10:48:23;;;;;;;37.35;18.85;;;;;;;;;;4979740;28;20442;-63
2023/09/30 10:50:51;;;;;;;37.15;19.52;;;;;;;;;;4981131;28;20405;-64
2023/09/30 10:53:18;;;;;;;36.45;18.77;;;;;;;;;;4987489;28;20499;-64
2023/09/30 10:55:46;;;;;;;41.15;20.20;;;;;;;;;;4981074;28;20056;-64
2023/09/30 10:58:16;;;;;;;39.55;19.25;;;;;;;;;;4983919;28;20509;-64
2023/09/30 11:00:55;;;;;;;38.78;19.48;;;;;;;;;;5003415;28;20483;-65
2023/09/30 11:03:22;;;;;;;42.53;20.17;;;;;;;;;;4979781;28;20339;-64
2023/09/30 11:05:50;;;;;;;34.30;17.58;;;;;;;;;;4983687;28;20364;-65
2023/09/30 11:08:17;;;;;;;37.03;18.85;;;;;;;;;;4995418;28;20038;-65
2023/09/30 11:10:50;;;;;;;34.92;17.40;;;;;;;;;;4982216;28;20240;-65
2023/09/30 11:13:17;;;;;;;39.25;18.65;;;;;;;;;;4980759;28;20061;-64
2023/09/30 11:15:44;;;;;;;35.85;18.95;;;;;;;;;;4988175;28;20124;-65
2023/09/30 11:18:15;;;;;;;39.03;18.63;;;;;;;;;;4985029;28;20117;-66
2023/09/30 11:20:42;;;;;;;45.75;20.45;;;;;;;;;;4995759;28;20038;-64
2023/09/30 11:23:10;;;;;;;36.60;19.17;;;;;;;;;;4982806;28;20069;-65
2023/09/30 11:25:37;;;;;;;39.05;19.38;;;;;;;;;;4981298;28;20169;-64
2023/09/30 11:28:16;;;;;;;41.92;19.33;;;;;;;;;;4975693;28;20153;-65
2023/09/30 11:30:55;;;;;;;37.85;17.73;;;;;;;;;;4988727;28;20209;-63
2023/09/30 11:33:22;;;;;;;35.40;18.80;;;;;;;;;;4979432;28;20065;-64
2023/09/30 11:36:02;;;;;;;36.25;17.60;;;;;;;;;;4979901;28;20058;-65
2023/09/30 11:38:32;;;;;;;35.17;17.55;;;;;;;;;;4979684;28;20049;-69
2023/09/30 11:41:03;;;;;;;36.90;18.38;;;;;;;;;;4981202;28;20048;-64
2023/09/30 11:43:31;;;;;;;36.97;19.10;;;;;;;;;;4980111;28;20046;-64
2023/09/30 11:46:08;;;;;;;42.70;19.42;;;;;;;;;;4981351;28;20038;-63
2023/09/30 11:48:55;;;;;;;34.42;18.00;;;;;;;;;;4978137;28;20061;-64
2023/09/30 11:51:24;;;;;;;36.10;19.50;;;;;;;;;;4979368;28;20042;-65
2023/09/30 11:53:51;;;;;;;36.92;19.83;;;;;;;;;;4977167;28;20037;-65
2023/09/30 11:56:18;;;;;;;39.17;18.98;;;;;;;;;;4980126;28;20338;-64
2023/09/30 11:58:46;;;;;;;41.50;20.60;;;;;;;;;;4981248;28;20042;-64
2023/09/30 12:01:13;;;;;;;41.75;19.50;;;;;;;;;;4981235;28;20038;-64
2023/09/30 12:03:41;;;;;;;46.58;19.95;;;;;;;;;;4978412;28;20191;-63
2023/09/30 12:06:13;;;;;;;41.30;20.23;;;;;;;;;;4995740;28;20191;-64
2023/09/30 12:08:43;;;;;;;40.80;19.87;;;;;;;;;;5002027;28;20629;-64
2023/09/30 12:11:13;;;;;;;42.05;20.45;;;;;;;;;;4978359;28;20383;-64
2023/09/30 12:13:40;;;;;;;38.80;19.55;;;;;;;;;;4979404;28;20800;-65
2023/09/30 12:16:06;;;;;;;43.22;20.25;;;;;;;;;;4979555;28;20043;-65
2023/09/30 12:18:33;;;;;;;39.95;20.15;;;;;;;;;;4980976;28;20140;-64
2023/09/30 12:21:00;;;;;;;42.88;19.58;;;;;;;;;;4981572;28;20732;-66
2023/09/30 12:23:26;;;;;;;40.60;20.67;;;;;;;;;;4978886;28;20038;-66
2023/09/30 12:25:54;;;;;;;42.13;19.58;;;;;;;;;;4985704;28;20046;-65
2023/09/30 12:28:21;;;;;;;46.00;20.83;;;;;;;;;;4987361;28;20533;-63
2023/09/30 12:30:47;;;;;;;39.65;20.50;;;;;;;;;;4978445;28;20080;-64
2023/09/30 12:33:14;;;;;;;42.03;20.08;;;;;;;;;;4979493;28;20034;-66
2023/09/30 12:35:40;;;;;;;42.42;20.08;;;;;;;;;;4976880;28;20058;-61
2023/09/30 12:38:07;;;;;;;39.92;19.70;;;;;;;;;;4978865;28;20046;-61
2023/09/30 12:40:34;;;;;;;38.80;20.88;;;;;;;;;;4978486;28;20495;-64
2023/09/30 12:43:01;;;;;;;40.75;20.00;;;;;;;;;;4977357;28;20088;-65
2023/09/30 12:45:28;;;;;;;41.55;19.77;;;;;;;;;;4978498;28;20703;-64
2023/09/30 12:47:56;;;;;;;45.85;21.63;;;;;;;;;;4979991;28;20042;-69
2023/09/30 12:50:23;;;;;;;42.78;20.08;;;;;;;;;;4978739;28;20101;-64
2023/09/30 12:52:49;;;;;;;47.60;20.85;;;;;;;;;;4979252;28;20553;-64
2023/09/30 12:55:16;;;;;;;41.00;19.48;;;;;;;;;;4980421;28;20204;-63
2023/09/30 12:57:42;;;;;;;45.45;20.58;;;;;;;;;;4980790;28;20045;-64
2023/09/30 13:00:09;;;;;;;41.38;20.45;;;;;;;;;;4978939;28;20402;-63
2023/09/30 13:02:36;;;;;;;38.65;19.88;;;;;;;;;;4977159;28;20030;-64
2023/09/30 13:05:04;;;;;;;40.75;19.48;;;;;;;;;;4977833;28;20576;-64
2023/09/30 13:07:32;;;;;;;39.03;19.58;;;;;;;;;;4992509;28;20084;-63
2023/09/30 13:10:00;;;;;;;48.65;20.45;;;;;;;;;;4977135;28;20046;-64
2023/09/30 13:12:27;;;;;;;45.10;19.15;;;;;;;;;;4993589;28;20045;-62
2023/09/30 13:14:56;;;;;;;39.85;19.85;;;;;;;;;;4978530;28;20153;-64
2023/09/30 13:17:23;;;;;;;39.70;19.75;;;;;;;;;;4978140;28;20042;-64
2023/09/30 13:19:51;;;;;;;42.15;19.13;;;;;;;;;;4976814;28;20395;-63
2023/09/30 13:22:18;;;;;;;38.40;19.25;;;;;;;;;;4979854;28;20187;-64
2023/09/30 13:24:45;;;;;;;42.72;20.35;;;;;;;;;;4984423;28;20472;-64
2023/09/30 13:27:12;;;;;;;36.55;19.75;;;;;;;;;;4979199;28;20049;-63
2023/09/30 13:29:39;;;;;;;38.10;19.80;;;;;;;;;;4973927;28;20160;-64
2023/09/30 13:32:06;;;;;;;44.58;20.77;;;;;;;;;;4978226;28;20050;-64
2023/09/30 13:34:32;;;;;;;45.33;21.08;;;;;;;;;;4977502;28;20038;-63
2023/09/30 13:36:59;;;;;;;48.03;21.77;;;;;;;;;;4980761;28;20173;-64
2023/09/30 13:39:26;;;;;;;45.25;22.33;;;;;;;;;;4976284;28;20049;-64
2023/09/30 13:41:52;;;;;;;41.28;21.20;;;;;;;;;;4975751;28;20042;-63
2023/09/30 13:44:19;;;;;;;44.08;20.40;;;;;;;;;;4977609;28;20359;-63
2023/09/30 13:46:46;;;;;;;40.78;20.40;;;;;;;;;;4979416;28;20080;-67
2023/09/30 13:49:13;;;;;;;47.50;21.05;;;;;;;;;;4978397;28;20932;-64
2023/09/30 13:51:40;;;;;;;42.95;22.42;;;;;;;;;;4979800;28;20089;-65
2023/09/30 13:54:09;;;;;;;41.92;21.10;;;;;;;;;;4974815;28;20455;-63
2023/09/30 13:56:36;;;;;;;46.13;21.42;;;;;;;;;;4979045;28;20069;-63
2023/09/30 13:59:03;;;;;;;43.20;22.60;;;;;;;;;;4982902;28;20045;-64
2023/09/30 14:01:30;;;;;;;44.35;21.85;;;;;;;;;;4995656;28;20121;-62
2023/09/30 14:03:57;;;;;;;43.80;20.63;;;;;;;;;;4982866;28;20076;-64
2023/09/30 14:06:24;;;;;;;43.78;21.48;;;;;;;;;;4982769;28;20130;-67
2023/09/30 14:08:52;;;;;;;37.55;19.23;;;;;;;;;;4995633;28;20066;-64
2023/09/30 14:11:19;;;;;;;36.67;19.95;;;;;;;;;;4983350;28;20484;-65
2023/09/30 14:13:46;;;;;;;36.38;20.17;;;;;;;;;;4982052;28;20037;-64
2023/09/30 14:16:12;;;;;;;42.42;20.13;;;;;;;;;;4998867;28;20514;-64
2023/09/30 14:18:44;;;;;;;38.67;20.20;;;;;;;;;;4980220;28;20622;-63
2023/09/30 14:21:11;;;;;;;41.95;20.98;;;;;;;;;;4981445;28;20080;-62
2023/09/30 14:23:58;;;;;;;42.20;20.48;;;;;;;;;;5015064;28;20055;-65
2023/09/30 14:26:24;;;;;;;44.03;20.52;;;;;;;;;;5017089;28;20041;-64
2023/09/30 14:29:12;;;;;;;39.20;20.25;;;;;;;;;;5015261;28;20175;-63
2023/09/30 14:31:39;;;;;;;39.60;20.20;;;;;;;;;;5028061;28;20037;-63
2023/09/30 14:34:05;;;;;;;39.65;20.15;;;;;;;;;;5028696;28;20041;-64